createdAt,value
2019-05-25T00:03:00.000Z,14.6
2019-05-25T00:08:00.000Z,14.6
2019-05-25T00:14:00.000Z,14.5
2019-05-25T00:19:00.000Z,14.5
2019-05-25T00:24:00.000Z,14.5
2019-05-25T00:29:00.000Z,14.4
2019-05-25T00:34:00.000Z,14.4
2019-05-25T00:39:00.000Z,14.3
2019-05-25T00:44:00.000Z,14.3
2019-05-25T00:49:00.000Z,14.3
2019-05-25T00:54:00.000Z,14.3
2019-05-25T00:59:00.000Z,14.2
2019-05-25T01:04:00.000Z,14.2
2019-05-25T01:09:00.000Z,14.2
2019-05-25T01:14:00.000Z,14.1
2019-05-25T01:19:00.000Z,14.1
2019-05-25T01:24:00.000Z,14.1
2019-05-25T01:29:00.000Z,14.0
2019-05-25T01:34:00.000Z,14.0
2019-05-25T01:39:00.000Z,13.9
2019-05-25T01:44:00.000Z,13.9
2019-05-25T01:49:00.000Z,13.9
2019-05-25T01:54:00.000Z,13.9
2019-05-25T02:00:00.000Z,13.9
2019-05-25T02:05:00.000Z,14.0
2019-05-25T02:10:00.000Z,14.0
2019-05-25T02:15:00.000Z,14.0
2019-05-25T02:20:00.000Z,13.9
2019-05-25T02:25:00.000Z,13.9
2019-05-25T02:30:00.000Z,13.9
2019-05-25T02:35:00.000Z,13.9
2019-05-25T02:40:00.000Z,13.9
2019-05-25T02:45:00.000Z,13.9
2019-05-25T02:50:00.000Z,13.9
2019-05-25T02:55:00.000Z,13.9
2019-05-25T03:00:00.000Z,13.8
2019-05-25T03:05:00.000Z,13.8
2019-05-25T03:10:00.000Z,13.8
2019-05-25T03:15:00.000Z,13.8
2019-05-25T03:20:00.000Z,13.8
2019-05-25T03:25:00.000Z,13.8
2019-05-25T03:30:00.000Z,13.8
2019-05-25T03:35:00.000Z,13.8
2019-05-25T03:40:00.000Z,13.8
2019-05-25T03:45:00.000Z,13.9
2019-05-25T03:50:00.000Z,13.9
2019-05-25T03:55:00.000Z,14.0
2019-05-25T04:01:00.000Z,14.0
2019-05-25T04:06:00.000Z,14.1
2019-05-25T04:11:00.000Z,14.1
2019-05-25T04:16:00.000Z,14.2
2019-05-25T04:21:00.000Z,14.2
2019-05-25T04:26:00.000Z,14.2
2019-05-25T04:31:00.000Z,14.2
2019-05-25T04:36:00.000Z,14.3
2019-05-25T04:41:00.000Z,14.4
2019-05-25T04:46:00.000Z,14.5
2019-05-25T04:51:00.000Z,14.6
2019-05-25T04:56:00.000Z,14.6
2019-05-25T05:01:00.000Z,14.7
2019-05-25T05:06:00.000Z,14.8
2019-05-25T05:11:00.000Z,14.9
2019-05-25T05:16:00.000Z,15.1
2019-05-25T05:21:00.000Z,15.2
2019-05-25T05:26:00.000Z,15.3
2019-05-25T05:31:00.000Z,15.5
2019-05-25T05:36:00.000Z,15.6
2019-05-25T05:41:00.000Z,15.8
2019-05-25T05:46:00.000Z,16.0
2019-05-25T05:52:00.000Z,16.2
2019-05-25T05:57:00.000Z,16.4
2019-05-25T06:02:00.000Z,16.7
2019-05-25T06:07:00.000Z,16.9
2019-05-25T06:12:00.000Z,17.1
2019-05-25T06:17:00.000Z,17.3
2019-05-25T06:22:00.000Z,17.4
2019-05-25T06:27:00.000Z,17.5
2019-05-25T06:32:00.000Z,17.7
2019-05-25T06:37:00.000Z,17.9
2019-05-25T06:42:00.000Z,18.1
2019-05-25T06:47:00.000Z,18.3
2019-05-25T06:52:00.000Z,18.6
2019-05-25T06:57:00.000Z,19.1
2019-05-25T07:02:00.000Z,19.5
2019-05-25T07:07:00.000Z,19.9
2019-05-25T07:12:00.000Z,20.3
2019-05-25T07:17:00.000Z,20.8
2019-05-25T07:22:00.000Z,21.6
2019-05-25T07:27:00.000Z,22.2
2019-05-25T07:33:00.000Z,23.0
2019-05-25T07:38:00.000Z,23.5
2019-05-25T07:43:00.000Z,24.2
2019-05-25T07:48:00.000Z,24.5
2019-05-25T07:53:00.000Z,24.3
2019-05-25T07:58:00.000Z,24.7
2019-05-25T08:03:00.000Z,25.2
2019-05-25T08:08:00.000Z,25.6
2019-05-25T08:13:00.000Z,26.0
2019-05-25T08:18:00.000Z,26.2
2019-05-25T08:23:00.000Z,26.6
2019-05-25T08:28:00.000Z,27.1
2019-05-25T08:33:00.000Z,27.6
2019-05-25T08:38:00.000Z,28.1
2019-05-25T08:43:00.000Z,28.1
2019-05-25T08:48:00.000Z,27.7
2019-05-25T08:53:00.000Z,27.9
2019-05-25T08:58:00.000Z,28.2
2019-05-25T09:03:00.000Z,28.6
2019-05-25T09:08:00.000Z,28.8
2019-05-25T09:13:00.000Z,29.1
2019-05-25T09:18:00.000Z,29.4
2019-05-25T09:23:00.000Z,29.4
2019-05-25T09:28:00.000Z,29.3
2019-05-25T09:34:00.000Z,29.2
2019-05-25T09:39:00.000Z,29.6
2019-05-25T09:44:00.000Z,29.5
2019-05-25T09:49:00.000Z,29.7
2019-05-25T09:54:00.000Z,29.2
2019-05-25T09:59:00.000Z,28.4
2019-05-25T10:04:00.000Z,28.0
2019-05-25T10:09:00.000Z,28.1
2019-05-25T10:14:00.000Z,27.9
2019-05-25T10:19:00.000Z,28.3
2019-05-25T10:24:00.000Z,27.7
2019-05-25T10:29:00.000Z,27.8
2019-05-25T10:34:00.000Z,28.4
2019-05-25T10:39:00.000Z,28.4
2019-05-25T10:44:00.000Z,27.8
2019-05-25T10:49:00.000Z,28.0
2019-05-25T10:54:00.000Z,27.6
2019-05-25T10:59:00.000Z,27.4
2019-05-25T11:04:00.000Z,27.5
2019-05-25T11:09:00.000Z,27.2
2019-05-25T11:14:00.000Z,27.1
2019-05-25T11:19:00.000Z,26.7
2019-05-25T11:24:00.000Z,26.7
2019-05-25T11:29:00.000Z,26.7
2019-05-25T11:35:00.000Z,26.8
2019-05-25T11:40:00.000Z,26.6
2019-05-25T11:45:00.000Z,26.6
2019-05-25T11:50:00.000Z,26.9
2019-05-25T11:55:00.000Z,27.0
2019-05-25T12:00:00.000Z,27.2
2019-05-25T12:05:00.000Z,27.3
2019-05-25T12:10:00.000Z,27.5
2019-05-25T12:15:00.000Z,27.4
2019-05-25T12:20:00.000Z,27.2
2019-05-25T12:25:00.000Z,26.8
2019-05-25T12:30:00.000Z,26.7
2019-05-25T12:35:00.000Z,26.7
2019-05-25T12:40:00.000Z,27.1
2019-05-25T12:45:00.000Z,27.3
2019-05-25T12:50:00.000Z,27.0
2019-05-25T12:55:00.000Z,26.9
2019-05-25T13:00:00.000Z,26.8
2019-05-25T13:05:00.000Z,27.2
2019-05-25T13:10:00.000Z,27.5
2019-05-25T13:15:00.000Z,27.8
2019-05-25T13:21:00.000Z,28.0
2019-05-25T13:26:00.000Z,28.2
2019-05-25T13:31:00.000Z,28.5
2019-05-25T13:36:00.000Z,28.6
2019-05-25T13:41:00.000Z,28.6
2019-05-25T13:46:00.000Z,28.7
2019-05-25T13:51:00.000Z,28.5
2019-05-25T13:56:00.000Z,28.5
2019-05-25T14:01:00.000Z,28.5
2019-05-25T14:06:00.000Z,28.3
2019-05-25T14:11:00.000Z,28.5
2019-05-25T14:16:00.000Z,28.5
2019-05-25T14:21:00.000Z,28.3
2019-05-25T14:26:00.000Z,27.9
2019-05-25T14:31:00.000Z,27.5
2019-05-25T14:36:00.000Z,27.2
2019-05-25T14:41:00.000Z,27.2
2019-05-25T14:46:00.000Z,27.2
2019-05-25T14:51:00.000Z,27.0
2019-05-25T14:56:00.000Z,26.7
2019-05-25T15:01:00.000Z,26.6
2019-05-25T15:07:00.000Z,26.5
2019-05-25T15:12:00.000Z,26.4
2019-05-25T15:17:00.000Z,26.1
2019-05-25T15:22:00.000Z,25.9
2019-05-25T15:27:00.000Z,25.7
2019-05-25T15:32:00.000Z,25.5
2019-05-25T15:37:00.000Z,25.3
2019-05-25T15:42:00.000Z,25.1
2019-05-25T15:47:00.000Z,25.0
2019-05-25T15:52:00.000Z,25.0
2019-05-25T15:57:00.000Z,25.1
2019-05-25T16:02:00.000Z,25.3
2019-05-25T16:07:00.000Z,25.5
2019-05-25T16:12:00.000Z,25.6
2019-05-25T16:17:00.000Z,25.6
2019-05-25T16:22:00.000Z,25.5
2019-05-25T16:27:00.000Z,25.4
2019-05-25T16:32:00.000Z,25.4
2019-05-25T16:38:00.000Z,25.3
2019-05-25T16:43:00.000Z,25.3
2019-05-25T16:48:00.000Z,25.2
2019-05-25T16:53:00.000Z,25.1
2019-05-25T16:58:00.000Z,24.9
2019-05-25T17:03:00.000Z,24.7
2019-05-25T17:08:00.000Z,24.4
2019-05-25T17:13:00.000Z,24.2
2019-05-25T17:18:00.000Z,24.0
2019-05-25T17:23:00.000Z,23.7
2019-05-25T17:28:00.000Z,23.5
2019-05-25T17:33:00.000Z,23.3
2019-05-25T17:38:00.000Z,23.2
2019-05-25T17:43:00.000Z,23.1
2019-05-25T17:48:00.000Z,22.9
2019-05-25T17:53:00.000Z,22.8
2019-05-25T17:58:00.000Z,22.7
2019-05-25T18:03:00.000Z,22.6
2019-05-25T18:09:00.000Z,22.5
2019-05-25T18:14:00.000Z,22.4
2019-05-25T18:19:00.000Z,22.3
2019-05-25T18:24:00.000Z,22.2
2019-05-25T18:29:00.000Z,22.1
2019-05-25T18:34:00.000Z,22.0
2019-05-25T18:39:00.000Z,21.9
2019-05-25T18:44:00.000Z,21.7
2019-05-25T18:49:00.000Z,21.6
2019-05-25T18:54:00.000Z,21.5
2019-05-25T18:59:00.000Z,21.4
2019-05-25T19:04:00.000Z,21.3
2019-05-25T19:09:00.000Z,21.3
2019-05-25T19:14:00.000Z,21.2
2019-05-25T19:20:00.000Z,21.1
2019-05-25T19:25:00.000Z,21.1
2019-05-25T19:30:00.000Z,21.0
2019-05-25T19:35:00.000Z,20.9
2019-05-25T19:40:00.000Z,20.9
2019-05-25T19:45:00.000Z,20.9
2019-05-25T19:50:00.000Z,20.9
2019-05-25T19:55:00.000Z,20.8
2019-05-25T20:00:00.000Z,20.8
2019-05-25T20:05:00.000Z,20.8
2019-05-25T20:10:00.000Z,20.7
2019-05-25T20:15:00.000Z,20.7
2019-05-25T20:20:00.000Z,20.7
2019-05-25T20:25:00.000Z,20.7
2019-05-25T20:30:00.000Z,20.7
2019-05-25T20:35:00.000Z,20.7
2019-05-25T20:40:00.000Z,20.7
2019-05-25T20:45:00.000Z,20.7
2019-05-25T20:50:00.000Z,20.7
2019-05-25T20:55:00.000Z,20.7
2019-05-25T21:00:00.000Z,20.6
2019-05-25T21:05:00.000Z,20.5
2019-05-25T21:10:00.000Z,20.4
2019-05-25T21:15:00.000Z,20.4
2019-05-25T21:20:00.000Z,20.3
2019-05-25T21:25:00.000Z,20.1
2019-05-25T21:30:00.000Z,20.0
2019-05-25T21:35:00.000Z,19.9
2019-05-25T21:41:00.000Z,19.8
2019-05-25T21:46:00.000Z,19.8
2019-05-25T21:51:00.000Z,19.7
2019-05-25T21:56:00.000Z,19.7
2019-05-25T22:01:00.000Z,19.7
2019-05-25T22:06:00.000Z,19.5
2019-05-25T22:11:00.000Z,19.4
2019-05-25T22:16:00.000Z,19.2
2019-05-25T22:21:00.000Z,19.1
2019-05-25T22:26:00.000Z,19.0
2019-05-25T22:31:00.000Z,18.9
2019-05-25T22:36:00.000Z,18.8
2019-05-25T22:41:00.000Z,18.8
2019-05-25T22:46:00.000Z,18.7
2019-05-25T22:51:00.000Z,18.7
2019-05-25T22:56:00.000Z,18.7
2019-05-25T23:01:00.000Z,18.7
2019-05-25T23:06:00.000Z,18.6
2019-05-25T23:11:00.000Z,18.6
2019-05-25T23:16:00.000Z,18.6
2019-05-25T23:22:00.000Z,18.5
2019-05-25T23:27:00.000Z,18.4
2019-05-25T23:32:00.000Z,18.4
2019-05-25T23:37:00.000Z,18.4
2019-05-25T23:42:00.000Z,18.4
2019-05-25T23:47:00.000Z,18.5
2019-05-25T23:52:00.000Z,18.5
2019-05-25T23:57:00.000Z,18.5
